Time;durP1;ratioP1;P1;durP2;ratioP2;P2;SDS_P1;SDS_P2;PMS_P1;PMS_P2;Temp;Humidity;BMP_temperature;BMP_pressure;BME280_temperature;BME280_humidity;BME280_pressure;Samples;Min_cycle;Max_cycle;Signal;HPM_P1;HPM_P2
2021/03/08 00:02:01;;;;;;;32.13;22.10;;;;;;;2.25;86.62;100967.97;5030774;28;20197;-78
2021/03/08 00:04:27;;;;;;;33.27;22.23;;;;;;;2.23;86.21;100964.50;5036276;28;20217;-79
2021/03/08 00:06:53;;;;;;;30.93;20.87;;;;;;;2.26;86.49;100969.72;5029091;28;20988;-79
2021/03/08 00:09:19;;;;;;;37.33;20.47;;;;;;;2.22;87.32;100970.50;5036993;28;20225;-79
2021/03/08 00:11:45;;;;;;;34.10;21.90;;;;;;;2.17;87.85;100967.78;5030358;28;20209;-78
2021/03/08 00:14:11;;;;;;;27.73;20.57;;;;;;;2.14;87.35;100975.47;5037558;28;20225;-78
2021/03/08 00:16:36;;;;;;;33.40;23.27;;;;;;;2.17;88.03;100970.38;5028255;28;20230;-79
2021/03/08 00:19:03;;;;;;;27.20;20.50;;;;;;;2.10;87.54;100972.75;5027772;28;20213;-79
2021/03/08 00:21:29;;;;;;;26.90;19.67;;;;;;;2.10;88.25;100970.19;5030405;28;20215;-79
2021/03/08 00:23:55;;;;;;;29.60;19.87;;;;;;;2.13;87.76;100972.84;5037427;28;20690;-79
2021/03/08 00:26:21;;;;;;;32.13;20.23;;;;;;;2.05;88.62;100975.22;5030562;28;20226;-79
2021/03/08 00:28:47;;;;;;;35.30;22.03;;;;;;;2.04;88.76;100977.75;5036867;28;20209;-79
2021/03/08 00:31:13;;;;;;;32.73;20.63;;;;;;;1.96;89.28;100973.31;5029867;28;20293;-79
2021/03/08 00:33:39;;;;;;;37.47;22.37;;;;;;;2.03;89.78;100981.19;5027967;28;20294;-80
2021/03/08 00:36:05;;;;;;;38.60;22.90;;;;;;;1.98;90.08;100983.63;5034103;28;20257;-80
2021/03/08 00:38:32;;;;;;;34.33;20.07;;;;;;;1.97;90.17;100975.03;5034773;28;20584;-78
2021/03/08 00:40:58;;;;;;;33.53;22.43;;;;;;;1.98;90.07;100984.50;5029858;28;20570;-79
2021/03/08 00:43:23;;;;;;;36.47;20.10;;;;;;;2.03;90.40;100981.19;5028843;28;20242;-79
2021/03/08 00:45:49;;;;;;;40.20;22.27;;;;;;;2.12;89.96;100984.84;5027771;28;20301;-80
2021/03/08 00:48:15;;;;;;;36.87;21.67;;;;;;;2.07;90.50;100983.84;5025871;28;20203;-80
2021/03/08 00:50:41;;;;;;;31.50;21.00;;;;;;;2.08;90.11;100985.63;5029941;28;20322;-79
2021/03/08 00:53:07;;;;;;;39.03;22.13;;;;;;;2.08;90.37;100982.16;5033463;28;20220;-79
2021/03/08 00:55:34;;;;;;;30.50;20.23;;;;;;;2.04;90.02;100980.34;5028255;28;20235;-79
2021/03/08 00:58:00;;;;;;;29.77;21.67;;;;;;;2.15;89.70;100977.19;5032709;28;20203;-79
2021/03/08 01:00:27;;;;;;;32.50;22.00;;;;;;;2.21;89.70;100973.88;5033839;28;20673;-79
2021/03/08 01:02:54;;;;;;;36.47;21.90;;;;;;;2.22;89.00;100974.75;5031326;28;20207;-79
2021/03/08 01:05:21;;;;;;;32.50;21.83;;;;;;;2.25;89.14;100970.56;5032258;28;20233;-80
2021/03/08 01:07:47;;;;;;;43.30;23.03;;;;;;;2.29;89.10;100976.66;5078574;22;20244;-78
2021/03/08 01:10:17;;;;;;;37.50;23.43;;;;;;;2.28;88.76;100982.63;5055320;28;20686;-77
2021/03/08 01:12:44;;;;;;;39.03;22.17;;;;;;;2.29;88.43;100982.66;5057543;28;20897;-78
2021/03/08 01:15:11;;;;;;;32.70;20.43;;;;;;;2.29;88.26;100982.66;5056865;28;20226;-79
2021/03/08 01:17:38;;;;;;;26.23;16.73;;;;;;;2.08;86.70;100983.03;5062197;28;20202;-77
2021/03/08 01:20:05;;;;;;;21.00;16.20;;;;;;;2.08;86.51;100977.00;5062299;28;20224;-77
2021/03/08 01:22:31;;;;;;;16.83;14.43;;;;;;;2.14;85.68;100978.03;5057900;28;20206;-79
2021/03/08 01:24:57;;;;;;;19.47;13.47;;;;;;;2.25;85.27;100980.84;5059900;28;20221;-79
2021/03/08 01:27:23;;;;;;;19.63;10.90;;;;;;;2.40;84.87;100975.19;5059169;28;20201;-78
2021/03/08 01:29:50;;;;;;;25.73;12.47;;;;;;;2.48;84.16;100980.50;5058444;28;20195;-78
2021/03/08 01:32:16;;;;;;;17.10;9.67;;;;;;;2.59;82.49;100981.63;5059975;28;20406;-79
2021/03/08 01:34:42;;;;;;;14.70;9.27;;;;;;;2.70;81.48;100975.00;5059116;28;20225;-78
2021/03/08 01:37:08;;;;;;;11.07;6.53;;;;;;;2.73;81.30;100974.19;5060151;28;20593;-79
2021/03/08 01:39:34;;;;;;;8.83;7.30;;;;;;;2.74;80.71;100974.25;5058745;28;20197;-79
2021/03/08 01:42:00;;;;;;;9.23;6.00;;;;;;;2.78;80.41;100976.03;5058757;28;20232;-79
2021/03/08 01:44:26;;;;;;;12.93;4.77;;;;;;;2.82;79.77;100970.97;5057355;28;20338;-78
2021/03/08 01:46:54;;;;;;;8.67;4.23;;;;;;;2.83;78.51;100972.69;5057611;28;20663;-79
2021/03/08 01:49:20;;;;;;;8.70;4.33;;;;;;;2.81;78.69;100974.38;5055254;28;20202;-78
2021/03/08 01:51:47;;;;;;;11.77;4.90;;;;;;;2.77;79.32;100976.91;5058499;28;20204;-78
2021/03/08 01:54:13;;;;;;;10.73;4.10;;;;;;;2.83;79.58;100978.72;5057129;28;20237;-78
2021/03/08 01:56:39;;;;;;;9.53;4.13;;;;;;;2.82;79.31;100976.97;5057616;28;20202;-78
2021/03/08 01:59:05;;;;;;;9.40;4.70;;;;;;;2.76;79.46;100985.44;5055890;28;20205;-77
2021/03/08 02:01:31;;;;;;;11.27;4.07;;;;;;;2.75;80.20;100981.13;5056761;28;20209;-77
2021/03/08 02:03:58;;;;;;;11.67;3.53;;;;;;;2.81;80.29;100976.94;5055932;28;20204;-79
2021/03/08 02:06:24;;;;;;;17.30;4.63;;;;;;;2.78;80.62;100980.34;5057074;28;20209;-78
2021/03/08 02:08:50;;;;;;;10.50;4.67;;;;;;;2.47;81.22;100974.50;5056378;28;20206;-78
2021/03/08 02:11:16;;;;;;;15.33;4.47;;;;;;;2.11;82.20;100975.38;5056063;28;20207;-79
2021/03/08 02:14:21;;;;;;;14.53;5.20;;;;;;;2.10;82.58;100980.47;5047943;28;20212;-78
2021/03/08 02:16:53;;;;;;;9.73;4.03;;;;;;;2.13;83.40;100983.13;5051396;28;20206;-77
2021/03/08 02:20:04;;;;;;;10.60;5.10;;;;;;;1.86;84.39;100985.91;5054055;28;20205;-77
2021/03/08 02:22:56;;;;;;;10.70;4.83;;;;;;;1.94;85.08;100974.97;5052245;28;20216;-78
2021/03/08 02:25:35;;;;;;;8.83;4.23;;;;;;;1.97;85.82;100980.19;5051512;28;20236;-78
2021/03/08 02:28:47;;;;;;;13.60;3.67;;;;;;;1.93;84.93;100969.78;5054087;28;20206;-78
2021/03/08 02:31:16;;;;;;;16.17;3.60;;;;;;;2.05;85.61;100969.22;5039226;28;20198;-78
2021/03/08 02:33:50;;;;;;;11.03;3.77;;;;;;;2.15;85.11;100972.03;5052923;28;20218;-78
2021/03/08 02:36:17;;;;;;;11.70;4.10;;;;;;;2.07;85.01;100973.56;5053421;28;20221;-78
2021/03/08 02:38:46;;;;;;;9.23;3.73;;;;;;;2.14;84.78;100970.31;5052723;28;20274;-78
2021/03/08 02:41:15;;;;;;;7.90;3.20;;;;;;;2.17;85.26;100969.50;5053365;28;20203;-77
2021/03/08 02:43:43;;;;;;;6.03;3.13;;;;;;;2.06;85.57;100973.50;5056234;28;20201;-79
2021/03/08 02:46:13;;;;;;;12.47;3.70;;;;;;;2.09;85.15;100968.44;5061106;28;20206;-78
2021/03/08 02:48:42;;;;;;;7.33;3.13;;;;;;;1.84;86.11;100970.41;5060060;28;20210;-78
2021/03/08 02:51:09;;;;;;;11.83;3.73;;;;;;;1.98;85.94;100970.75;5060440;28;20204;-78
2021/03/08 02:53:39;;;;;;;16.93;4.50;;;;;;;2.10;85.25;100973.66;5058747;28;20328;-78
2021/03/08 02:56:07;;;;;;;11.37;3.60;;;;;;;2.24;85.36;100973.09;5053984;28;20233;-79
2021/03/08 02:58:35;;;;;;;11.50;4.30;;;;;;;2.33;84.85;100971.59;5057129;28;20217;-79
2021/03/08 03:01:02;;;;;;;8.70;3.80;;;;;;;2.27;84.74;100974.03;5052700;28;20565;-79
2021/03/08 03:03:30;;;;;;;14.87;3.87;;;;;;;2.32;84.28;100972.44;5057982;28;20214;-78
2021/03/08 03:05:59;;;;;;;13.53;4.10;;;;;;;2.28;84.84;100972.31;5060048;28;20303;-77
2021/03/08 03:08:27;;;;;;;10.93;3.40;;;;;;;2.36;84.80;100978.53;5057909;28;20213;-80
2021/03/08 03:10:54;;;;;;;10.67;4.10;;;;;;;2.29;84.04;100984.38;5060280;28;20206;-80
2021/03/08 03:13:21;;;;;;;11.93;3.40;;;;;;;2.24;83.77;100979.13;5057490;28;20255;-79
2021/03/08 03:15:48;;;;;;;7.90;3.40;;;;;;;2.19;84.13;100983.28;5060575;28;20225;-79
2021/03/08 03:18:17;;;;;;;9.93;3.43;;;;;;;2.26;84.10;100982.59;5059597;28;20212;-79
2021/03/08 03:20:44;;;;;;;7.00;3.40;;;;;;;2.27;83.51;100988.63;5059620;28;20215;-76
2021/03/08 03:23:13;;;;;;;8.97;3.20;;;;;;;2.39;83.37;100988.91;5058865;28;20213;-79
2021/03/08 03:25:40;;;;;;;10.50;3.50;;;;;;;2.36;81.91;100987.13;5058874;28;20218;-80
2021/03/08 03:28:08;;;;;;;8.63;2.93;;;;;;;2.33;82.05;100986.19;5059000;28;20206;-79
2021/03/08 03:30:34;;;;;;;11.67;3.43;;;;;;;2.25;81.68;100985.13;5058013;28;20208;-78
2021/03/08 03:33:02;;;;;;;10.83;3.73;;;;;;;2.36;82.36;100984.56;5058716;28;20209;-80
2021/03/08 03:35:30;;;;;;;10.47;3.90;;;;;;;2.31;82.10;100995.59;5058751;28;20251;-78
2021/03/08 03:37:57;;;;;;;12.17;2.80;;;;;;;2.33;82.12;101002.50;5059383;28;20660;-79
2021/03/08 03:40:24;;;;;;;9.43;2.90;;;;;;;2.43;81.44;101006.19;5059800;28;20212;-79
2021/03/08 03:42:51;;;;;;;11.10;3.57;;;;;;;2.54;81.91;101009.88;5059718;28;20201;-79
2021/03/08 03:45:18;;;;;;;8.00;2.83;;;;;;;2.55;81.22;101008.16;5059744;28;20228;-77
2021/03/08 03:47:44;;;;;;;9.67;3.80;;;;;;;2.58;81.80;101016.84;5059316;28;20256;-79
2021/03/08 03:50:13;;;;;;;14.50;3.50;;;;;;;2.62;81.04;101022.03;5059350;28;20199;-79
2021/03/08 03:52:40;;;;;;;10.70;3.70;;;;;;;2.63;80.29;101023.81;5060069;28;20259;-79
2021/03/08 03:55:09;;;;;;;14.30;3.30;;;;;;;2.70;79.60;101021.41;5058641;28;20229;-79
2021/03/08 03:57:42;;;;;;;7.50;3.63;;;;;;;2.70;79.31;101026.56;5060964;28;20216;-79
2021/03/08 04:00:10;;;;;;;8.10;4.07;;;;;;;2.66;78.91;101034.19;5060503;28;20619;-79
2021/03/08 04:02:41;;;;;;;12.50;5.37;;;;;;;2.61;78.99;101033.22;5060108;28;20212;-78
2021/03/08 04:05:10;;;;;;;14.93;7.73;;;;;;;2.59;79.42;101040.91;5060035;28;20217;-78
2021/03/08 04:07:40;;;;;;;16.60;7.03;;;;;;;2.62;79.07;101038.41;5059375;28;20212;-77
2021/03/08 04:10:10;;;;;;;19.33;8.63;;;;;;;2.62;78.87;101043.56;5057452;28;20261;-79
2021/03/08 04:12:39;;;;;;;21.63;9.43;;;;;;;2.52;78.95;101044.19;5057072;28;20205;-79
2021/03/08 04:15:09;;;;;;;21.13;11.30;;;;;;;2.50;78.18;101040.69;5059558;28;20236;-79
2021/03/08 04:17:36;;;;;;;31.53;11.27;;;;;;;2.37;78.93;101045.53;5059769;28;20210;-79
2021/03/08 04:20:06;;;;;;;20.07;9.43;;;;;;;2.34;78.03;101048.06;5059164;28;20200;-78
2021/03/08 04:22:34;;;;;;;21.63;9.40;;;;;;;2.19;78.72;101051.09;5058990;28;20214;-80
2021/03/08 04:25:02;;;;;;;19.80;9.50;;;;;;;2.14;79.54;101047.56;5057410;28;20701;-79
2021/03/08 04:27:30;;;;;;;16.00;9.37;;;;;;;2.04;79.54;101052.44;5059532;28;20213;-79
2021/03/08 04:29:58;;;;;;;23.40;8.27;;;;;;;1.98;78.91;101051.47;5059287;28;20199;-78
2021/03/08 04:32:25;;;;;;;22.77;8.57;;;;;;;1.99;79.57;101053.19;5058790;28;20206;-79
2021/03/08 04:34:52;;;;;;;15.63;8.13;;;;;;;1.98;79.67;101056.59;5060076;28;20610;-79
2021/03/08 04:37:18;;;;;;;17.37;7.13;;;;;;;2.04;79.30;101055.00;5059268;28;20201;-79
2021/03/08 04:39:46;;;;;;;16.40;7.50;;;;;;;1.99;79.31;101058.34;5057378;28;20206;-79
2021/03/08 04:42:14;;;;;;;11.00;6.90;;;;;;;1.96;79.68;101059.94;5059109;28;20695;-78
2021/03/08 04:44:43;;;;;;;9.73;6.63;;;;;;;1.93;78.75;101063.31;5057848;28;20226;-79
2021/03/08 04:47:10;;;;;;;12.93;6.57;;;;;;;1.85;78.95;101063.97;5062600;28;20663;-79
2021/03/08 04:49:40;;;;;;;13.70;6.87;;;;;;;1.81;79.17;101062.13;5061841;28;20640;-78
2021/03/08 04:52:08;;;;;;;14.23;6.83;;;;;;;1.72;79.05;101060.16;5062851;28;20202;-78
2021/03/08 04:54:35;;;;;;;11.17;7.37;;;;;;;1.75;79.19;101061.13;5060381;28;20241;-77
2021/03/08 04:57:02;;;;;;;13.23;7.47;;;;;;;1.73;78.85;101067.94;5062161;28;20662;-79
2021/03/08 04:59:28;;;;;;;9.00;5.80;;;;;;;1.73;78.48;101057.66;5056953;28;20202;-79
2021/03/08 05:01:58;;;;;;;11.47;5.93;;;;;;;1.72;78.54;101057.59;5061154;28;20293;-78
2021/03/08 05:04:25;;;;;;;14.37;6.30;;;;;;;1.73;77.76;101062.78;5059946;28;20264;-78
2021/03/08 05:06:53;;;;;;;9.73;5.87;;;;;;;1.65;77.87;101066.00;5060336;28;20198;-78
2021/03/08 05:09:20;;;;;;;14.60;6.67;;;;;;;1.58;77.73;101068.38;5057664;28;20207;-78
2021/03/08 05:11:47;;;;;;;10.97;6.17;;;;;;;1.55;77.90;101076.03;5060161;28;20662;-78
2021/03/08 05:14:17;;;;;;;13.73;6.43;;;;;;;1.50;78.09;101067.28;5059845;28;20232;-77
2021/03/08 05:16:45;;;;;;;9.67;5.53;;;;;;;1.42;78.00;101063.63;5061375;28;20667;-78
2021/03/08 05:19:14;;;;;;;7.60;4.73;;;;;;;1.44;78.33;101068.84;5059602;28;20208;-78
2021/03/08 05:21:42;;;;;;;9.70;5.20;;;;;;;1.38;77.99;101062.66;5061216;28;20212;-79
2021/03/08 05:24:09;;;;;;;8.93;5.23;;;;;;;1.39;77.63;101066.16;5061169;28;20229;-79
2021/03/08 05:26:36;;;;;;;12.60;5.37;;;;;;;1.35;78.02;101064.31;5061489;28;20204;-79
2021/03/08 05:29:02;;;;;;;11.70;5.37;;;;;;;1.31;78.40;101070.16;5061159;28;20232;-78
2021/03/08 05:31:32;;;;;;;11.60;5.03;;;;;;;1.25;78.58;101068.31;5062404;28;20208;-79
2021/03/08 05:34:01;;;;;;;15.47;4.97;;;;;;;1.21;78.33;101078.44;5061240;28;20673;-79
2021/03/08 05:36:28;;;;;;;13.40;4.83;;;;;;;1.13;78.21;101089.41;5061556;28;20226;-79
2021/03/08 05:38:56;;;;;;;11.47;6.00;;;;;;;0.86;79.72;101099.69;5061419;28;20210;-78
2021/03/08 05:41:25;;;;;;;9.93;4.63;;;;;;;0.87;79.37;101098.00;5061955;28;20209;-78
2021/03/08 05:43:54;;;;;;;11.33;4.87;;;;;;;0.82;79.70;101104.69;5061743;28;20202;-79
2021/03/08 05:46:25;;;;;;;10.70;5.30;;;;;;;0.91;79.83;101103.28;5059954;28;20208;-79
2021/03/08 05:49:37;;;;;;;12.10;6.27;;;;;;;0.95;79.64;101109.38;5049734;28;20205;-78
2021/03/08 05:52:54;;;;;;;8.20;5.17;;;;;;;0.82;80.76;101112.41;5021452;28;20212;-79
2021/03/08 05:55:35;;;;;;;8.60;4.80;;;;;;;0.75;80.81;101119.94;5054783;28;20229;-79
2021/03/08 05:58:46;;;;;;;10.67;4.70;;;;;;;0.85;81.35;101121.06;5049613;28;20209;-78
2021/03/08 06:01:57;;;;;;;10.67;4.70;;;;;;;0.95;80.89;101128.28;4988099;28;20208;-78
2021/03/08 06:04:54;;;;;;;12.80;6.10;;;;;;;1.06;80.47;101125.16;4993957;28;20640;-78
2021/03/08 06:07:53;;;;;;;10.10;4.60;;;;;;;1.08;80.26;101132.06;5055465;28;20266;-77
2021/03/08 06:10:24;;;;;;;10.17;4.60;;;;;;;1.08;80.17;101132.06;5055146;28;20244;-77
2021/03/08 06:12:54;;;;;;;9.13;4.80;;;;;;;0.96;80.49;101131.69;5059961;28;20198;-78
2021/03/08 06:15:22;;;;;;;8.50;4.53;;;;;;;0.97;80.70;101136.91;5055030;28;20225;-78
2021/03/08 06:17:50;;;;;;;12.37;5.77;;;;;;;1.02;80.12;101137.03;5058227;28;20297;-79
2021/03/08 06:20:18;;;;;;;11.57;5.50;;;;;;;1.07;79.97;101148.34;5059938;28;20219;-79
2021/03/08 06:22:45;;;;;;;11.87;5.43;;;;;;;1.09;80.32;101143.22;5060229;28;20206;-78
2021/03/08 06:25:12;;;;;;;10.33;6.17;;;;;;;1.14;79.70;101146.81;5060607;28;20595;-79
2021/03/08 06:27:42;;;;;;;9.03;5.20;;;;;;;1.13;80.07;101145.97;5059641;28;20232;-79
2021/03/08 06:30:09;;;;;;;11.77;5.63;;;;;;;1.14;79.63;101151.97;5060104;28;20197;-78
2021/03/08 06:32:35;;;;;;;8.50;5.00;;;;;;;1.06;79.98;101154.28;5059630;28;20213;-78
2021/03/08 06:35:01;;;;;;;10.83;5.40;;;;;;;0.92;80.42;101159.00;5059669;28;20233;-79
2021/03/08 06:37:27;;;;;;;12.63;6.00;;;;;;;0.82;81.04;101150.97;5059442;28;20263;-79
2021/03/08 06:39:54;;;;;;;9.67;5.47;;;;;;;0.88;80.55;101164.00;5060127;28;20201;-79
2021/03/08 06:42:20;;;;;;;12.53;5.87;;;;;;;0.92;80.70;101163.28;5060976;28;20300;-78
2021/03/08 06:44:48;;;;;;;14.70;5.53;;;;;;;0.93;80.48;101167.56;5060380;28;20221;-79
2021/03/08 06:47:14;;;;;;;6.83;5.00;;;;;;;0.91;80.58;101170.13;5058974;28;20198;-78
2021/03/08 06:49:40;;;;;;;12.27;6.00;;;;;;;0.96;80.19;101173.69;5057278;28;20212;-78
2021/03/08 06:52:08;;;;;;;11.37;5.57;;;;;;;1.04;80.50;101179.09;5059120;28;20206;-78
2021/03/08 06:54:35;;;;;;;13.40;6.00;;;;;;;0.99;80.28;101178.94;5057987;28;20221;-77
2021/03/08 06:57:01;;;;;;;12.47;5.73;;;;;;;1.10;80.31;101186.13;5055045;28;20197;-78
2021/03/08 06:59:28;;;;;;;14.07;6.67;;;;;;;1.17;79.80;101185.50;5057661;28;20208;-79
2021/03/08 07:01:55;;;;;;;11.87;5.97;;;;;;;1.22;79.63;101178.78;5056376;28;20232;-78
2021/03/08 07:04:22;;;;;;;15.50;5.63;;;;;;;1.25;79.52;101181.47;5056008;28;20232;-79
2021/03/08 07:07:00;;;;;;;11.43;6.70;;;;;;;1.30;79.15;101185.03;5056744;28;20213;-78
2021/03/08 07:09:27;;;;;;;15.17;6.53;;;;;;;1.21;79.65;101186.44;5058114;28;20216;-79
2021/03/08 07:12:10;;;;;;;10.73;6.10;;;;;;;1.12;80.53;101194.75;5057050;28;20202;-79
2021/03/08 07:14:37;;;;;;;11.07;6.07;;;;;;;1.10;80.20;101191.25;5059610;28;20285;-80
2021/03/08 07:17:31;;;;;;;9.03;5.77;;;;;;;1.13;80.22;101196.47;5058075;28;20208;-77
2021/03/08 07:19:59;;;;;;;9.17;5.17;;;;;;;1.17;79.89;101200.94;5060677;28;20212;-77
2021/03/08 07:22:39;;;;;;;10.97;5.67;;;;;;;1.26;79.03;101197.75;5058591;28;20217;-78
2021/03/08 07:25:08;;;;;;;9.43;5.17;;;;;;;1.22;79.66;101194.22;5058589;28;20225;-80
2021/03/08 07:27:41;;;;;;;13.33;5.93;;;;;;;1.26;80.08;101195.19;5057920;28;20991;-79
2021/03/08 07:30:09;;;;;;;11.63;5.20;;;;;;;1.26;79.52;101213.19;5059303;28;20193;-79
2021/03/08 07:32:38;;;;;;;8.23;5.13;;;;;;;1.28;79.68;101199.53;5056293;28;20245;-79
2021/03/08 07:35:05;;;;;;;12.47;5.40;;;;;;;1.24;80.57;101212.28;5059652;28;20233;-79
2021/03/08 07:37:43;;;;;;;10.53;4.90;;;;;;;1.26;79.98;101205.47;5059315;28;20204;-79
2021/03/08 07:40:10;;;;;;;13.17;5.00;;;;;;;1.26;80.74;101210.63;5059367;28;20207;-79
2021/03/08 07:42:42;;;;;;;10.83;5.50;;;;;;;1.23;80.97;101211.41;5058637;28;20201;-80
2021/03/08 07:45:09;;;;;;;10.77;5.40;;;;;;;1.24;80.47;101207.13;5061640;28;20702;-78
2021/03/08 07:47:35;;;;;;;10.27;5.60;;;;;;;1.32;79.70;101209.09;5056413;28;20218;-78
2021/03/08 07:50:22;;;;;;;12.63;5.67;;;;;;;1.37;79.66;101212.69;5060388;28;20201;-79
2021/03/08 07:52:48;;;;;;;10.90;5.30;;;;;;;1.41;79.47;101215.34;5058615;28;20218;-79
2021/03/08 07:55:14;;;;;;;9.37;4.97;;;;;;;1.38;79.70;101216.13;5057472;28;20229;-79
2021/03/08 07:57:41;;;;;;;13.13;6.20;;;;;;;1.47;79.28;101218.13;5057888;28;20263;-78
2021/03/08 08:00:09;;;;;;;14.27;6.27;;;;;;;1.55;79.76;101214.97;5057807;28;20203;-79
2021/03/08 08:02:36;;;;;;;13.43;5.27;;;;;;;1.59;79.67;101223.66;5055247;28;20209;-77
2021/03/08 08:05:03;;;;;;;10.03;5.77;;;;;;;1.57;79.62;101223.59;5058024;28;20223;-79
2021/03/08 08:07:31;;;;;;;12.93;5.67;;;;;;;1.54;79.95;101231.22;5055637;28;20205;-78
2021/03/08 08:10:03;;;;;;;12.33;6.47;;;;;;;1.26;81.36;101232.06;5052708;28;20198;-77
2021/03/08 08:12:33;;;;;;;10.20;5.57;;;;;;;1.25;81.67;101234.56;5051017;28;20198;-77
2021/03/08 08:15:01;;;;;;;12.23;6.70;;;;;;;1.45;81.63;101230.94;5054865;28;20233;-80
2021/03/08 08:17:29;;;;;;;8.67;6.60;;;;;;;1.65;80.37;101225.53;5057020;28;20616;-79
2021/03/08 08:19:59;;;;;;;10.50;5.43;;;;;;;1.78;79.73;101230.19;5057877;28;20198;-78
2021/03/08 08:22:26;;;;;;;7.33;4.57;;;;;;;1.70;79.39;101232.53;5073079;22;20226;-77
2021/03/08 08:24:55;;;;;;;10.37;5.03;;;;;;;1.81;78.92;101226.88;5050767;28;20229;-77
2021/03/08 08:27:23;;;;;;;6.97;4.60;;;;;;;1.87;79.64;101233.06;5051727;28;20616;-76
2021/03/08 08:29:50;;;;;;;7.23;5.17;;;;;;;1.99;78.25;101227.41;5053880;28;20586;-76
2021/03/08 08:32:17;;;;;;;6.67;4.10;;;;;;;2.06;77.30;101233.59;5053121;28;20328;-76
2021/03/08 08:34:44;;;;;;;6.80;4.67;;;;;;;1.98;77.02;101231.69;5053692;28;20223;-77
2021/03/08 08:37:12;;;;;;;9.07;4.20;;;;;;;1.94;77.65;101228.94;5053626;28;20252;-77
2021/03/08 08:39:40;;;;;;;8.67;4.43;;;;;;;1.78;76.12;101237.94;5053427;28;20198;-77
2021/03/08 08:42:14;;;;;;;9.07;4.97;;;;;;;1.75;76.92;101233.56;5051491;28;20212;-77
2021/03/08 08:44:43;;;;;;;11.67;5.87;;;;;;;1.44;78.66;101244.63;5051859;28;20220;-78
2021/03/08 08:47:15;;;;;;;11.63;6.53;;;;;;;1.34;80.32;101247.72;5053670;28;20309;-77
2021/03/08 08:49:41;;;;;;;12.70;7.00;;;;;;;0.83;82.62;101253.78;5053741;28;20214;-77
2021/03/08 08:52:07;;;;;;;13.20;7.20;;;;;;;0.61;83.62;101241.91;5052301;28;20202;-76
2021/03/08 08:54:54;;;;;;;13.60;7.37;;;;;;;0.43;84.58;101241.28;5050751;28;20220;-75
2021/03/08 08:57:20;;;;;;;11.90;8.00;;;;;;;0.45;85.04;101242.19;5052038;28;20213;-75
2021/03/08 08:59:50;;;;;;;17.17;8.20;;;;;;;0.55;85.28;101242.56;5052242;28;20232;-76
2021/03/08 09:02:32;;;;;;;12.00;7.73;;;;;;;0.67;84.77;101238.66;5049465;28;20733;-76
2021/03/08 09:04:58;;;;;;;10.57;8.40;;;;;;;0.79;84.83;101237.41;5053121;28;20221;-75
2021/03/08 09:07:26;;;;;;;8.03;6.33;;;;;;;1.05;84.04;101236.50;5052655;28;20275;-76
2021/03/08 09:09:55;;;;;;;8.67;6.80;;;;;;;1.06;82.34;101241.69;5052801;28;20201;-76
2021/03/08 09:12:32;;;;;;;9.23;6.87;;;;;;;1.31;81.42;101235.66;5050989;28;20220;-75
2021/03/08 09:14:59;;;;;;;10.30;6.47;;;;;;;1.62;81.56;101230.59;5051579;28;20315;-76
2021/03/08 09:17:27;;;;;;;14.10;6.27;;;;;;;1.97;80.98;101221.31;5051030;28;20218;-76
2021/03/08 09:20:21;;;;;;;9.63;4.53;;;;;;;2.33;78.45;101229.19;5052276;28;20212;-76
2021/03/08 09:22:49;;;;;;;6.27;3.80;;;;;;;2.58;75.71;101222.16;5049359;28;20275;-75
2021/03/08 09:25:32;;;;;;;9.93;4.17;;;;;;;2.71;75.31;101224.19;5050371;28;20702;-76
2021/03/08 09:28:16;;;;;;;7.03;4.70;;;;;;;2.85;74.74;101223.69;5046872;28;20276;-76
2021/03/08 09:30:44;;;;;;;6.63;4.70;;;;;;;2.91;74.17;101227.28;5051421;28;20217;-75
2021/03/08 09:33:11;;;;;;;5.30;4.00;;;;;;;2.91;73.26;101228.97;5051052;28;20202;-76
2021/03/08 09:35:39;;;;;;;8.57;4.83;;;;;;;2.92;72.24;101223.00;5052546;28;20217;-76
2021/03/08 09:38:07;;;;;;;9.13;4.53;;;;;;;2.84;72.21;101234.84;5051861;28;20328;-76
2021/03/08 09:40:36;;;;;;;13.57;5.43;;;;;;;2.67;71.66;101243.00;5052662;28;20204;-76
2021/03/08 09:43:16;;;;;;;8.90;4.67;;;;;;;2.71;73.36;101243.94;5048484;28;20199;-76
2021/03/08 09:45:42;;;;;;;8.10;5.20;;;;;;;2.91;77.94;101240.16;5051015;28;20225;-76
2021/03/08 09:48:08;;;;;;;8.33;4.43;;;;;;;3.13;73.89;101239.00;5051220;28;20293;-75
2021/03/08 09:50:36;;;;;;;9.70;4.83;;;;;;;3.25;71.70;101235.88;5048604;28;20202;-76
2021/03/08 09:53:03;;;;;;;5.93;4.23;;;;;;;3.29;71.67;101245.41;5049609;28;20209;-76
2021/03/08 09:55:32;;;;;;;10.67;3.80;;;;;;;3.42;71.89;101238.81;5049101;28;20237;-76
2021/03/08 09:58:09;;;;;;;7.33;3.87;;;;;;;3.53;69.59;101239.09;5050433;28;20680;-75
2021/03/08 10:00:35;;;;;;;4.00;3.33;;;;;;;3.52;68.28;101234.75;5047611;28;20214;-75
2021/03/08 10:03:03;;;;;;;7.67;4.10;;;;;;;3.53;69.96;101239.09;5047812;28;20217;-76
2021/03/08 10:05:41;;;;;;;6.73;3.80;;;;;;;3.51;68.59;101239.03;5047536;28;20240;-75
2021/03/08 10:08:08;;;;;;;5.33;3.43;;;;;;;3.53;67.50;101234.78;5050654;28;20206;-75
2021/03/08 10:10:42;;;;;;;3.80;2.80;;;;;;;3.46;65.45;101237.19;5051838;28;20228;-75
2021/03/08 10:13:09;;;;;;;4.90;2.73;;;;;;;3.37;64.08;101243.88;5050048;28;20687;-75
2021/03/08 10:15:44;;;;;;;3.43;2.93;;;;;;;3.37;65.12;101248.19;5049230;28;20226;-75
2021/03/08 10:18:11;;;;;;;4.30;2.70;;;;;;;3.44;68.73;101244.88;5051727;28;20203;-75
2021/03/08 10:20:50;;;;;;;4.13;3.43;;;;;;;3.44;65.96;101254.34;5051833;28;20565;-75
2021/03/08 10:23:18;;;;;;;6.50;3.57;;;;;;;3.54;67.24;101251.13;5048933;28;20221;-75
2021/03/08 10:25:45;;;;;;;6.30;3.40;;;;;;;3.58;64.63;101253.81;5051723;28;20286;-75
2021/03/08 10:28:14;;;;;;;4.10;3.33;;;;;;;3.60;63.90;101250.41;5050643;28;20203;-75
2021/03/08 10:30:40;;;;;;;4.43;3.10;;;;;;;3.63;63.13;101246.19;5053580;28;20260;-76
2021/03/08 10:33:08;;;;;;;12.43;4.03;;;;;;;3.58;64.70;101246.06;5051060;28;20609;-76
2021/03/08 10:35:37;;;;;;;4.83;2.27;;;;;;;3.60;62.44;101245.25;5051631;28;20222;-76
2021/03/08 10:38:03;;;;;;;3.47;2.23;;;;;;;3.56;61.74;101246.88;5051229;28;20203;-76
2021/03/08 10:40:30;;;;;;;6.00;3.47;;;;;;;3.46;62.52;101250.09;5050873;28;20221;-76
2021/03/08 10:42:57;;;;;;;5.90;3.43;;;;;;;3.56;64.45;101252.03;5051216;28;20566;-76
2021/03/08 10:45:25;;;;;;;7.17;3.20;;;;;;;3.64;63.67;101241.91;5050701;28;20236;-76
2021/03/08 10:48:08;;;;;;;2.43;2.23;;;;;;;3.67;62.41;101242.84;5050534;28;20267;-75
2021/03/08 10:50:42;;;;;;;4.80;2.23;;;;;;;3.70;61.10;101247.19;5051073;28;20240;-76
2021/03/08 10:53:09;;;;;;;6.87;3.20;;;;;;;3.65;61.87;101241.94;5050748;28;20198;-76
2021/03/08 10:55:35;;;;;;;4.57;3.77;;;;;;;3.72;61.48;101235.19;5050176;28;20241;-76
2021/03/08 10:58:02;;;;;;;3.00;2.37;;;;;;;3.74;60.58;101244.69;5051363;28;20202;-75
2021/03/08 11:00:29;;;;;;;5.30;3.30;;;;;;;3.75;61.17;101236.13;5051199;28;20311;-76
2021/03/08 11:02:55;;;;;;;3.00;2.50;;;;;;;3.79;57.96;101242.22;5048317;28;20707;-76
2021/03/08 11:05:23;;;;;;;2.70;2.10;;;;;;;3.93;56.68;101239.94;5051026;28;20710;-76
2021/03/08 11:07:49;;;;;;;6.10;3.33;;;;;;;3.94;57.23;101241.69;5050912;28;20198;-78
2021/03/08 11:10:15;;;;;;;4.83;3.07;;;;;;;3.94;57.55;101232.25;5048227;28;20197;-76
2021/03/08 11:12:41;;;;;;;3.67;2.00;;;;;;;4.09;55.44;101233.38;5052195;28;20550;-79
2021/03/08 11:15:08;;;;;;;2.97;2.67;;;;;;;4.19;54.85;101237.91;5053559;28;20601;-78
2021/03/08 11:17:39;;;;;;;4.00;3.07;;;;;;;4.33;55.60;101238.16;5051137;28;20207;-78
2021/03/08 11:20:13;;;;;;;5.40;2.53;;;;;;;4.30;53.21;101238.09;5052920;28;20610;-78
2021/03/08 11:22:53;;;;;;;3.53;2.30;;;;;;;4.35;53.70;101234.75;5050004;28;20221;-78
2021/03/08 11:25:36;;;;;;;3.77;1.60;;;;;;;4.40;51.51;101237.47;5050983;28;20271;-78
2021/03/08 11:28:06;;;;;;;2.90;1.50;;;;;;;4.38;50.77;101234.84;5051748;28;20205;-78
2021/03/08 11:30:33;;;;;;;3.07;2.10;;;;;;;4.38;53.36;101236.56;5052518;28;20200;-78
2021/03/08 11:33:00;;;;;;;4.80;2.40;;;;;;;4.53;55.02;101230.78;5050867;28;20213;-78
2021/03/08 11:35:28;;;;;;;3.03;2.20;;;;;;;4.63;52.59;101230.09;5052622;28;20291;-78
2021/03/08 11:37:57;;;;;;;4.20;2.27;;;;;;;4.75;52.15;101227.72;5053071;28;20211;-78
2021/03/08 11:40:23;;;;;;;4.00;2.30;;;;;;;4.91;51.41;101228.88;5052637;28;20626;-79